sensor_id;sensor_type;location;lat;lon;timestamp;temperature;humidity
21590;DHT22;10957;50.968;6.828;2023-03-01T00:04:23;-2.00;1.00
21590;DHT22;10957;50.968;6.828;2023-03-01T00:09:24;-1.30;1.00
21590;DHT22;10957;50.968;6.828;2023-03-01T00:14:25;-2.00;1.00
21590;DHT22;10957;50.968;6.828;2023-03-01T00:19:27;-1.60;1.00
21590;DHT22;10957;50.968;6.828;2023-03-01T00:24:28;-1.80;1.00
21590;DHT22;10957;50.968;6.828;2023-03-01T00:29:29;-1.30;1.00
21590;DHT22;10957;50.968;6.828;2023-03-01T00:34:30;-2.00;1.00
21590;DHT22;10957;50.968;6.828;2023-03-01T00:39:32;-1.60;1.00
21590;DHT22;10957;50.968;6.828;2023-03-01T00:44:34;-1.90;1.00
21590;DHT22;10957;50.968;6.828;2023-03-01T00:49:35;-1.70;1.00
21590;DHT22;10957;50.968;6.828;2023-03-01T00:54:36;-1.50;1.00
21590;DHT22;10957;50.968;6.828;2023-03-01T00:59:37;-1.50;1.00
21590;DHT22;10957;50.968;6.828;2023-03-01T01:04:38;-1.80;1.00
21590;DHT22;10957;50.968;6.828;2023-03-01T01:09:40;-1.70;1.00
21590;DHT22;10957;50.968;6.828;2023-03-01T01:14:41;-1.70;1.00
21590;DHT22;10957;50.968;6.828;2023-03-01T01:19:44;-2.00;1.00
21590;DHT22;10957;50.968;6.828;2023-03-01T01:24:45;-2.20;1.00
21590;DHT22;10957;50.968;6.828;2023-03-01T01:29:46;-2.10;1.00
21590;DHT22;10957;50.968;6.828;2023-03-01T01:34:47;-2.10;1.00
21590;DHT22;10957;50.968;6.828;2023-03-01T01:39:48;-2.20;1.00
21590;DHT22;10957;50.968;6.828;2023-03-01T01:50:40;-1.90;1.00
21590;DHT22;10957;50.968;6.828;2023-03-01T01:55:45;-2.00;1.00
21590;DHT22;10957;50.968;6.828;2023-03-01T02:00:48;-2.10;1.00
21590;DHT22;10957;50.968;6.828;2023-03-01T02:05:55;-2.70;1.00
21590;DHT22;10957;50.968;6.828;2023-03-01T02:10:58;-2.00;9.50
21590;DHT22;10957;50.968;6.828;2023-03-01T02:16:05;-2.30;13.10
21590;DHT22;10957;50.968;6.828;2023-03-01T02:26:50;-2.40;26.50
21590;DHT22;10957;50.968;6.828;2023-03-01T02:31:54;-2.60;37.20
21590;DHT22;10957;50.968;6.828;2023-03-01T02:37:01;-2.40;42.90
21590;DHT22;10957;50.968;6.828;2023-03-01T02:42:06;-2.90;55.00
21590;DHT22;10957;50.968;6.828;2023-03-01T02:47:07;-2.60;65.20
21590;DHT22;10957;50.968;6.828;2023-03-01T02:52:26;-2.70;74.80
21590;DHT22;10957;50.968;6.828;2023-03-01T02:57:31;-2.60;89.20
21590;DHT22;10957;50.968;6.828;2023-03-01T03:02:33;-2.70;89.50
21590;DHT22;10957;50.968;6.828;2023-03-01T03:07:43;-2.80;94.50
21590;DHT22;10957;50.968;6.828;2023-03-01T03:12:44;-3.20;99.90
21590;DHT22;10957;50.968;6.828;2023-03-01T03:17:50;-2.70;99.90
21590;DHT22;10957;50.968;6.828;2023-03-01T03:22:53;-3.00;99.90
21590;DHT22;10957;50.968;6.828;2023-03-01T03:27:56;-2.80;99.90
21590;DHT22;10957;50.968;6.828;2023-03-01T03:32:58;-2.90;99.90
21590;DHT22;10957;50.968;6.828;2023-03-01T03:38:03;-2.90;99.90
21590;DHT22;10957;50.968;6.828;2023-03-01T03:43:15;-2.90;99.90
21590;DHT22;10957;50.968;6.828;2023-03-01T03:48:17;-2.80;99.90
21590;DHT22;10957;50.968;6.828;2023-03-01T03:53:19;-3.10;99.90
21590;DHT22;10957;50.968;6.828;2023-03-01T03:58:23;-3.10;99.90
21590;DHT22;10957;50.968;6.828;2023-03-01T04:03:26;-3.20;99.90
21590;DHT22;10957;50.968;6.828;2023-03-01T04:08:27;-3.20;99.90
21590;DHT22;10957;50.968;6.828;2023-03-01T04:13:29;-3.20;99.90
21590;DHT22;10957;50.968;6.828;2023-03-01T04:18:30;-2.90;99.90
21590;DHT22;10957;50.968;6.828;2023-03-01T04:23:31;-3.00;99.90
21590;DHT22;10957;50.968;6.828;2023-03-01T04:28:34;-3.10;99.90
21590;DHT22;10957;50.968;6.828;2023-03-01T04:33:36;-3.10;99.90
21590;DHT22;10957;50.968;6.828;2023-03-01T04:38:38;-3.10;99.90
21590;DHT22;10957;50.968;6.828;2023-03-01T04:43:40;-3.10;99.90
21590;DHT22;10957;50.968;6.828;2023-03-01T04:48:42;-3.20;99.90
21590;DHT22;10957;50.968;6.828;2023-03-01T04:53:44;-3.20;99.90
21590;DHT22;10957;50.968;6.828;2023-03-01T04:58:46;-3.20;99.90
21590;DHT22;10957;50.968;6.828;2023-03-01T05:03:49;-3.40;99.90
21590;DHT22;10957;50.968;6.828;2023-03-01T05:08:50;-3.60;99.90
21590;DHT22;10957;50.968;6.828;2023-03-01T05:13:52;-3.90;99.90
21590;DHT22;10957;50.968;6.828;2023-03-01T05:18:55;-3.40;99.90
21590;DHT22;10957;50.968;6.828;2023-03-01T05:23:57;-3.40;99.90
21590;DHT22;10957;50.968;6.828;2023-03-01T05:28:59;-3.40;99.90
21590;DHT22;10957;50.968;6.828;2023-03-01T05:34:00;-3.60;99.90
21590;DHT22;10957;50.968;6.828;2023-03-01T05:39:02;-3.50;99.90
21590;DHT22;10957;50.968;6.828;2023-03-01T05:44:06;-3.80;99.90
21590;DHT22;10957;50.968;6.828;2023-03-01T05:49:08;-3.50;99.90
21590;DHT22;10957;50.968;6.828;2023-03-01T05:54:09;-3.70;99.90
21590;DHT22;10957;50.968;6.828;2023-03-01T05:59:11;-3.60;99.90
21590;DHT22;10957;50.968;6.828;2023-03-01T06:04:12;-3.60;99.90
21590;DHT22;10957;50.968;6.828;2023-03-01T06:09:13;-3.70;99.90
21590;DHT22;10957;50.968;6.828;2023-03-01T06:14:15;-3.70;99.90
21590;DHT22;10957;50.968;6.828;2023-03-01T06:19:16;-3.60;99.90
21590;DHT22;10957;50.968;6.828;2023-03-01T06:24:18;-4.10;99.90
21590;DHT22;10957;50.968;6.828;2023-03-01T06:29:19;-3.70;99.90
21590;DHT22;10957;50.968;6.828;2023-03-01T06:34:21;-3.80;99.90
21590;DHT22;10957;50.968;6.828;2023-03-01T06:39:22;-3.60;99.90
21590;DHT22;10957;50.968;6.828;2023-03-01T06:44:23;-3.70;99.90
21590;DHT22;10957;50.968;6.828;2023-03-01T06:49:25;-3.60;99.90
21590;DHT22;10957;50.968;6.828;2023-03-01T06:54:26;-3.60;99.90
21590;DHT22;10957;50.968;6.828;2023-03-01T06:59:27;-3.60;99.90
21590;DHT22;10957;50.968;6.828;2023-03-01T07:04:28;-3.30;99.90
21590;DHT22;10957;50.968;6.828;2023-03-01T07:09:31;-3.40;99.90
21590;DHT22;10957;50.968;6.828;2023-03-01T07:14:32;-3.30;99.90
21590;DHT22;10957;50.968;6.828;2023-03-01T07:19:33;-3.10;99.90
21590;DHT22;10957;50.968;6.828;2023-03-01T07:24:35;-3.40;99.90
21590;DHT22;10957;50.968;6.828;2023-03-01T07:29:36;-2.90;99.90
21590;DHT22;10957;50.968;6.828;2023-03-01T07:34:37;-2.70;99.90
21590;DHT22;10957;50.968;6.828;2023-03-01T07:39:39;-2.60;99.90
21590;DHT22;10957;50.968;6.828;2023-03-01T07:44:40;-2.20;99.90
21590;DHT22;10957;50.968;6.828;2023-03-01T07:49:41;-2.10;99.90
21590;DHT22;10957;50.968;6.828;2023-03-01T07:54:43;-1.80;99.90
21590;DHT22;10957;50.968;6.828;2023-03-01T07:59:45;-1.70;99.90
21590;DHT22;10957;50.968;6.828;2023-03-01T08:04:46;-1.50;99.90
21590;DHT22;10957;50.968;6.828;2023-03-01T08:09:47;-1.10;99.90
21590;DHT22;10957;50.968;6.828;2023-03-01T08:14:49;-1.00;99.90
21590;DHT22;10957;50.968;6.828;2023-03-01T08:19:50;-0.70;99.90
21590;DHT22;10957;50.968;6.828;2023-03-01T08:24:51;-0.30;99.90
21590;DHT22;10957;50.968;6.828;2023-03-01T08:29:52;0.40;99.90
21590;DHT22;10957;50.968;6.828;2023-03-01T08:34:53;0.70;54.00
21590;DHT22;10957;50.968;6.828;2023-03-01T08:39:55;0.90;1.00
21590;DHT22;10957;50.968;6.828;2023-03-01T08:44:56;1.30;1.00
21590;DHT22;10957;50.968;6.828;2023-03-01T08:49:57;1.50;1.00
21590;DHT22;10957;50.968;6.828;2023-03-01T08:54:58;1.80;1.00
21590;DHT22;10957;50.968;6.828;2023-03-01T09:00:02;2.30;1.00
21590;DHT22;10957;50.968;6.828;2023-03-01T09:05:04;2.40;1.00
21590;DHT22;10957;50.968;6.828;2023-03-01T09:10:05;2.60;1.00
21590;DHT22;10957;50.968;6.828;2023-03-01T09:15:07;2.60;1.00
21590;DHT22;10957;50.968;6.828;2023-03-01T09:20:09;3.20;1.00
21590;DHT22;10957;50.968;6.828;2023-03-01T09:25:11;3.40;1.00
21590;DHT22;10957;50.968;6.828;2023-03-01T09:30:12;3.30;1.00
21590;DHT22;10957;50.968;6.828;2023-03-01T09:35:13;3.40;1.00
21590;DHT22;10957;50.968;6.828;2023-03-01T09:40:18;3.50;1.00
21590;DHT22;10957;50.968;6.828;2023-03-01T09:50:39;4.00;1.00
21590;DHT22;10957;50.968;6.828;2023-03-01T09:55:58;4.10;1.00
21590;DHT22;10957;50.968;6.828;2023-03-01T10:01:16;3.90;1.00
21590;DHT22;10957;50.968;6.828;2023-03-01T10:06:21;4.30;1.00
21590;DHT22;10957;50.968;6.828;2023-03-01T10:11:35;4.40;1.00
21590;DHT22;10957;50.968;6.828;2023-03-01T10:16:48;4.50;1.00
21590;DHT22;10957;50.968;6.828;2023-03-01T10:21:51;4.50;1.00
21590;DHT22;10957;50.968;6.828;2023-03-01T10:27:26;4.40;1.00
21590;DHT22;10957;50.968;6.828;2023-03-01T10:32:31;4.70;1.00
21590;DHT22;10957;50.968;6.828;2023-03-01T10:37:32;4.60;1.00
21590;DHT22;10957;50.968;6.828;2023-03-01T10:42:37;4.60;99.90
21590;DHT22;10957;50.968;6.828;2023-03-01T10:47:39;5.00;1.00
21590;DHT22;10957;50.968;6.828;2023-03-01T10:52:41;5.00;99.90
21590;DHT22;10957;50.968;6.828;2023-03-01T10:57:42;5.00;99.90
21590;DHT22;10957;50.968;6.828;2023-03-01T11:08:00;5.10;99.90
21590;DHT22;10957;50.968;6.828;2023-03-01T11:13:08;5.00;99.90
21590;DHT22;10957;50.968;6.828;2023-03-01T11:18:22;5.50;99.90
21590;DHT22;10957;50.968;6.828;2023-03-01T11:23:24;5.50;99.90
21590;DHT22;10957;50.968;6.828;2023-03-01T11:28:28;5.80;99.90
21590;DHT22;10957;50.968;6.828;2023-03-01T11:33:59;5.80;99.90
21590;DHT22;10957;50.968;6.828;2023-03-01T11:44:26;5.70;99.90
21590;DHT22;10957;50.968;6.828;2023-03-01T12:05:59;6.30;99.90
21590;DHT22;10957;50.968;6.828;2023-03-01T12:11:50;6.70;99.90
21590;DHT22;10957;50.968;6.828;2023-03-01T12:22:26;6.90;99.90
21590;DHT22;10957;50.968;6.828;2023-03-01T12:33:08;7.30;99.90
21590;DHT22;10957;50.968;6.828;2023-03-01T12:43:51;7.60;99.90
21590;DHT22;10957;50.968;6.828;2023-03-01T12:49:14;7.50;99.90
21590;DHT22;10957;50.968;6.828;2023-03-01T12:54:33;7.80;99.90
21590;DHT22;10957;50.968;6.828;2023-03-01T13:00:10;7.90;99.90
21590;DHT22;10957;50.968;6.828;2023-03-01T13:05:36;8.10;99.90
21590;DHT22;10957;50.968;6.828;2023-03-01T13:10:53;8.00;99.90
21590;DHT22;10957;50.968;6.828;2023-03-01T13:21:31;8.30;99.90
21590;DHT22;10957;50.968;6.828;2023-03-01T13:37:27;8.40;99.90
21590;DHT22;10957;50.968;6.828;2023-03-01T13:42:37;8.50;99.90
21590;DHT22;10957;50.968;6.828;2023-03-01T13:47:41;8.50;99.90
21590;DHT22;10957;50.968;6.828;2023-03-01T13:52:45;8.60;99.90
21590;DHT22;10957;50.968;6.828;2023-03-01T13:57:50;8.60;99.90
21590;DHT22;10957;50.968;6.828;2023-03-01T14:03:08;8.40;99.90
21590;DHT22;10957;50.968;6.828;2023-03-01T14:08:22;8.40;99.90
21590;DHT22;10957;50.968;6.828;2023-03-01T14:13:32;8.50;99.90
21590;DHT22;10957;50.968;6.828;2023-03-01T14:18:55;8.20;99.90
21590;DHT22;10957;50.968;6.828;2023-03-01T14:23:58;8.30;99.90
21590;DHT22;10957;50.968;6.828;2023-03-01T14:29:01;7.90;99.90
21590;DHT22;10957;50.968;6.828;2023-03-01T14:34:03;7.90;99.90
21590;DHT22;10957;50.968;6.828;2023-03-01T14:39:17;8.20;99.90
21590;DHT22;10957;50.968;6.828;2023-03-01T14:44:21;8.30;99.90
21590;DHT22;10957;50.968;6.828;2023-03-01T14:49:30;7.60;99.90
21590;DHT22;10957;50.968;6.828;2023-03-01T14:54:43;7.70;99.90
21590;DHT22;10957;50.968;6.828;2023-03-01T14:59:45;8.10;99.90
21590;DHT22;10957;50.968;6.828;2023-03-01T15:04:52;8.30;99.90
21590;DHT22;10957;50.968;6.828;2023-03-01T15:09:55;8.20;99.90
21590;DHT22;10957;50.968;6.828;2023-03-01T15:14:57;7.80;99.90
21590;DHT22;10957;50.968;6.828;2023-03-01T15:19:59;8.00;99.90
21590;DHT22;10957;50.968;6.828;2023-03-01T15:25:01;7.70;99.90
21590;DHT22;10957;50.968;6.828;2023-03-01T15:30:03;7.70;99.90
21590;DHT22;10957;50.968;6.828;2023-03-01T15:40:49;7.80;99.90
21590;DHT22;10957;50.968;6.828;2023-03-01T15:45:56;7.30;99.90
21590;DHT22;10957;50.968;6.828;2023-03-01T15:50:59;7.40;99.90
21590;DHT22;10957;50.968;6.828;2023-03-01T15:56:02;7.40;99.90
21590;DHT22;10957;50.968;6.828;2023-03-01T16:01:15;7.30;99.90
21590;DHT22;10957;50.968;6.828;2023-03-01T16:06:17;7.00;99.90
21590;DHT22;10957;50.968;6.828;2023-03-01T16:11:19;6.90;99.90
21590;DHT22;10957;50.968;6.828;2023-03-01T16:16:21;6.90;99.90
21590;DHT22;10957;50.968;6.828;2023-03-01T16:21:24;6.80;99.90
21590;DHT22;10957;50.968;6.828;2023-03-01T16:26:26;6.90;99.90
21590;DHT22;10957;50.968;6.828;2023-03-01T16:31:27;6.70;99.90
21590;DHT22;10957;50.968;6.828;2023-03-01T16:36:29;6.60;99.90
21590;DHT22;10957;50.968;6.828;2023-03-01T16:41:30;6.30;99.90
21590;DHT22;10957;50.968;6.828;2023-03-01T16:46:32;5.80;99.90
21590;DHT22;10957;50.968;6.828;2023-03-01T16:51:34;6.30;99.90
21590;DHT22;10957;50.968;6.828;2023-03-01T16:56:36;6.20;99.90
21590;DHT22;10957;50.968;6.828;2023-03-01T17:01:39;6.00;99.90
21590;DHT22;10957;50.968;6.828;2023-03-01T17:06:41;5.80;99.90
21590;DHT22;10957;50.968;6.828;2023-03-01T17:11:43;5.50;99.90
21590;DHT22;10957;50.968;6.828;2023-03-01T17:16:44;5.20;99.90
21590;DHT22;10957;50.968;6.828;2023-03-01T17:21:45;5.50;99.90
21590;DHT22;10957;50.968;6.828;2023-03-01T17:26:47;5.10;99.90
21590;DHT22;10957;50.968;6.828;2023-03-01T17:31:48;4.60;99.90
21590;DHT22;10957;50.968;6.828;2023-03-01T17:36:50;4.70;99.90
21590;DHT22;10957;50.968;6.828;2023-03-01T17:41:52;4.90;99.90
21590;DHT22;10957;50.968;6.828;2023-03-01T17:46:53;4.80;99.90
21590;DHT22;10957;50.968;6.828;2023-03-01T17:51:54;4.60;99.90
21590;DHT22;10957;50.968;6.828;2023-03-01T17:56:56;4.30;99.90
21590;DHT22;10957;50.968;6.828;2023-03-01T18:01:58;4.30;99.90
21590;DHT22;10957;50.968;6.828;2023-03-01T18:07:01;4.10;99.90
21590;DHT22;10957;50.968;6.828;2023-03-01T18:12:02;4.00;99.90
21590;DHT22;10957;50.968;6.828;2023-03-01T18:17:04;4.10;99.90
21590;DHT22;10957;50.968;6.828;2023-03-01T18:22:11;4.20;99.90
21590;DHT22;10957;50.968;6.828;2023-03-01T18:27:13;4.10;99.90
21590;DHT22;10957;50.968;6.828;2023-03-01T18:32:15;4.30;99.90
21590;DHT22;10957;50.968;6.828;2023-03-01T18:37:16;4.20;99.90
21590;DHT22;10957;50.968;6.828;2023-03-01T18:42:18;4.10;99.90
21590;DHT22;10957;50.968;6.828;2023-03-01T18:47:22;4.10;99.90
21590;DHT22;10957;50.968;6.828;2023-03-01T18:52:23;4.00;99.90
21590;DHT22;10957;50.968;6.828;2023-03-01T18:57:24;3.50;99.90
21590;DHT22;10957;50.968;6.828;2023-03-01T19:02:26;3.80;99.90
21590;DHT22;10957;50.968;6.828;2023-03-01T19:07:27;3.70;99.90
21590;DHT22;10957;50.968;6.828;2023-03-01T19:12:28;3.70;99.90
21590;DHT22;10957;50.968;6.828;2023-03-01T19:17:31;3.70;99.90
21590;DHT22;10957;50.968;6.828;2023-03-01T19:22:32;2.90;99.90
21590;DHT22;10957;50.968;6.828;2023-03-01T19:27:33;3.20;99.90
21590;DHT22;10957;50.968;6.828;2023-03-01T19:32:35;3.10;99.90
21590;DHT22;10957;50.968;6.828;2023-03-01T19:37:36;3.00;99.90
21590;DHT22;10957;50.968;6.828;2023-03-01T19:42:37;2.90;99.90
21590;DHT22;10957;50.968;6.828;2023-03-01T19:47:39;2.60;99.90
21590;DHT22;10957;50.968;6.828;2023-03-01T19:52:40;2.60;99.90
21590;DHT22;10957;50.968;6.828;2023-03-01T19:57:41;2.50;99.90
21590;DHT22;10957;50.968;6.828;2023-03-01T20:02:42;2.30;99.90
21590;DHT22;10957;50.968;6.828;2023-03-01T20:07:43;2.20;99.90
21590;DHT22;10957;50.968;6.828;2023-03-01T20:12:46;2.10;99.90
21590;DHT22;10957;50.968;6.828;2023-03-01T20:17:47;1.90;99.90
21590;DHT22;10957;50.968;6.828;2023-03-01T20:22:48;1.50;99.90
21590;DHT22;10957;50.968;6.828;2023-03-01T20:27:49;1.20;99.90
21590;DHT22;10957;50.968;6.828;2023-03-01T20:32:52;1.00;99.90
21590;DHT22;10957;50.968;6.828;2023-03-01T20:37:53;0.80;99.90
21590;DHT22;10957;50.968;6.828;2023-03-01T20:42:54;0.80;99.90
21590;DHT22;10957;50.968;6.828;2023-03-01T20:47:55;0.70;99.90
21590;DHT22;10957;50.968;6.828;2023-03-01T20:52:57;0.80;1.00
21590;DHT22;10957;50.968;6.828;2023-03-01T20:57:58;0.60;1.00
21590;DHT22;10957;50.968;6.828;2023-03-01T21:02:59;0.70;1.00
21590;DHT22;10957;50.968;6.828;2023-03-01T21:08:00;0.60;1.00
21590;DHT22;10957;50.968;6.828;2023-03-01T21:13:02;0.20;1.00
21590;DHT22;10957;50.968;6.828;2023-03-01T21:18:04;0.20;1.00
21590;DHT22;10957;50.968;6.828;2023-03-01T21:23:05;0.20;1.00
21590;DHT22;10957;50.968;6.828;2023-03-01T21:28:06;0.20;1.00
21590;DHT22;10957;50.968;6.828;2023-03-01T21:33:07;0.10;1.00
21590;DHT22;10957;50.968;6.828;2023-03-01T21:38:08;-0.20;1.00
21590;DHT22;10957;50.968;6.828;2023-03-01T21:43:10;-0.30;1.00
21590;DHT22;10957;50.968;6.828;2023-03-01T21:48:11;-0.20;1.00
21590;DHT22;10957;50.968;6.828;2023-03-01T21:53:12;-0.20;1.00
21590;DHT22;10957;50.968;6.828;2023-03-01T21:58:13;0.00;1.00
21590;DHT22;10957;50.968;6.828;2023-03-01T22:03:15;0.10;1.00
21590;DHT22;10957;50.968;6.828;2023-03-01T22:08:17;-0.10;1.00
21590;DHT22;10957;50.968;6.828;2023-03-01T22:13:19;0.20;1.00
21590;DHT22;10957;50.968;6.828;2023-03-01T22:18:20;0.00;1.00
21590;DHT22;10957;50.968;6.828;2023-03-01T22:23:22;-0.10;1.00
21590;DHT22;10957;50.968;6.828;2023-03-01T22:28:23;0.20;1.00
21590;DHT22;10957;50.968;6.828;2023-03-01T22:33:24;-0.80;1.00
21590;DHT22;10957;50.968;6.828;2023-03-01T22:38:25;-0.10;1.00
21590;DHT22;10957;50.968;6.828;2023-03-01T22:43:28;-0.30;1.00
21590;DHT22;10957;50.968;6.828;2023-03-01T22:48:30;-0.30;1.00
21590;DHT22;10957;50.968;6.828;2023-03-01T22:53:31;-0.70;1.00
21590;DHT22;10957;50.968;6.828;2023-03-01T22:58:32;-0.10;1.00
21590;DHT22;10957;50.968;6.828;2023-03-01T23:03:34;-0.40;1.00
21590;DHT22;10957;50.968;6.828;2023-03-01T23:08:35;-0.20;1.00
21590;DHT22;10957;50.968;6.828;2023-03-01T23:13:36;-0.20;1.00
21590;DHT22;10957;50.968;6.828;2023-03-01T23:18:38;-0.40;1.00
21590;DHT22;10957;50.968;6.828;2023-03-01T23:23:40;-0.20;1.00
21590;DHT22;10957;50.968;6.828;2023-03-01T23:28:42;-0.50;1.00
21590;DHT22;10957;50.968;6.828;2023-03-01T23:33:45;-0.50;1.00
21590;DHT22;10957;50.968;6.828;2023-03-01T23:38:48;-0.50;1.00
21590;DHT22;10957;50.968;6.828;2023-03-01T23:43:51;-0.30;1.00
21590;DHT22;10957;50.968;6.828;2023-03-01T23:48:53;-0.40;1.00
21590;DHT22;10957;50.968;6.828;2023-03-01T23:53:56;-0.80;1.00
21590;DHT22;10957;50.968;6.828;2023-03-01T23:59:02;-0.90;1.00
